createdAt,value
2018-08-23T00:04:20.759Z,21.23
2018-08-23T00:12:41.802Z,21.16
2018-08-23T00:21:02.857Z,21.10
2018-08-23T00:29:23.878Z,21.02
2018-08-23T00:37:44.950Z,20.95
2018-08-23T00:46:05.999Z,20.84
2018-08-23T00:54:27.011Z,20.78
2018-08-23T01:02:48.054Z,20.60
2018-08-23T01:11:09.087Z,20.42
2018-08-23T01:19:31.211Z,20.35
2018-08-23T01:27:52.232Z,20.35
2018-08-23T01:36:13.255Z,20.25
2018-08-23T01:44:34.319Z,20.27
2018-08-23T01:52:55.326Z,20.15
2018-08-23T02:01:17.453Z,20.06
2018-08-23T02:09:38.586Z,20.03
2018-08-23T02:17:59.870Z,19.80
2018-08-23T02:26:20.897Z,19.71
2018-08-23T02:34:41.930Z,19.75
2018-08-23T02:43:03.078Z,19.71
2018-08-23T02:51:26.148Z,19.64
2018-08-23T02:59:47.443Z,19.59
2018-08-23T03:08:08.482Z,19.37
2018-08-23T03:16:29.493Z,19.28
2018-08-23T03:24:50.534Z,19.27
2018-08-23T03:33:11.541Z,19.21
2018-08-23T03:41:32.543Z,19.07
2018-08-23T03:55:08.668Z,18.97
2018-08-23T04:03:29.667Z,19.00
2018-08-23T04:11:50.763Z,19.00
2018-08-23T04:20:11.884Z,18.90
2018-08-23T04:28:33.990Z,18.93
2018-08-23T04:36:55.031Z,18.96
2018-08-23T04:45:16.300Z,18.99
2018-08-23T04:53:37.652Z,18.93
2018-08-23T05:01:58.763Z,18.89
2018-08-23T05:10:19.801Z,18.99
2018-08-23T05:18:40.979Z,19.13
2018-08-23T05:27:02.106Z,19.26
2018-08-23T05:40:21.087Z,19.53
2018-08-23T05:48:42.107Z,19.66
2018-08-23T05:57:03.226Z,19.81
2018-08-23T06:05:24.251Z,20.03
2018-08-23T06:13:45.274Z,20.38
2018-08-23T06:22:06.297Z,20.60
2018-08-23T06:30:28.427Z,20.84
2018-08-23T06:38:51.586Z,21.21
2018-08-23T06:47:12.667Z,21.69
2018-08-23T06:55:33.694Z,21.95
2018-08-23T07:03:54.692Z,22.29
2018-08-23T07:12:15.828Z,22.61
2018-08-23T07:20:37.028Z,22.82
2018-08-23T07:28:58.063Z,23.01
2018-08-23T07:37:19.422Z,23.40
2018-08-23T07:45:40.435Z,23.60
2018-08-23T07:54:01.482Z,23.95
2018-08-23T08:02:22.504Z,24.28
2018-08-23T08:10:43.635Z,24.46
2018-08-23T08:19:04.671Z,24.76
2018-08-23T08:27:25.716Z,25.14
2018-08-23T08:35:46.759Z,25.43
2018-08-23T08:44:07.787Z,25.70
2018-08-23T08:52:28.800Z,26.04
2018-08-23T09:00:51.874Z,26.16
2018-08-23T09:09:12.997Z,26.39
2018-08-23T09:17:34.062Z,26.56
2018-08-23T09:25:55.170Z,26.64
2018-08-23T09:34:16.213Z,26.58
2018-08-23T09:42:37.275Z,26.79
2018-08-23T09:50:58.346Z,26.86
2018-08-23T09:59:20.471Z,27.24
2018-08-23T10:07:41.499Z,27.66
2018-08-23T10:16:02.517Z,28.07
2018-08-23T10:24:23.536Z,28.29
2018-08-23T10:33:09.272Z,28.88
2018-08-23T10:41:30.291Z,28.71
2018-08-23T10:49:51.314Z,28.63
2018-08-23T10:58:12.355Z,29.05
2018-08-23T11:06:35.496Z,29.77
2018-08-23T11:14:56.508Z,30.21
2018-08-23T11:23:17.551Z,29.96
2018-08-23T11:31:38.602Z,30.15
2018-08-23T11:39:59.608Z,30.72
2018-08-23T11:48:20.635Z,31.61
2018-08-23T11:56:42.790Z,32.20
2018-08-23T12:05:03.814Z,32.09
2018-08-23T12:13:24.838Z,33.36
2018-08-23T12:21:46.183Z,34.49
2018-08-23T12:30:07.255Z,36.64
2018-08-23T12:38:28.299Z,35.22
2018-08-23T12:46:49.338Z,35.64
2018-08-23T13:03:29.676Z,36.98
2018-08-23T13:11:50.678Z,38.26
2018-08-23T13:20:11.692Z,39.10
2018-08-23T13:28:32.689Z,38.79
2018-08-23T13:36:53.787Z,40.06
2018-08-23T13:45:14.795Z,39.86
2018-08-23T13:53:35.882Z,39.24
2018-08-23T14:01:56.896Z,40.71
2018-08-23T14:10:17.951Z,40.56
2018-08-23T14:18:39.123Z,40.69
2018-08-23T14:27:00.168Z,38.99
2018-08-23T14:35:21.192Z,39.22
2018-08-23T14:43:42.244Z,39.88
2018-08-23T14:52:03.368Z,40.47
2018-08-23T15:00:24.514Z,40.19
2018-08-23T15:08:45.620Z,40.91
2018-08-23T15:17:06.666Z,41.87
2018-08-23T15:25:27.667Z,41.77
2018-08-23T15:33:48.731Z,40.77
2018-08-23T15:42:09.783Z,41.03
2018-08-23T15:50:30.785Z,39.96
2018-08-23T15:58:51.812Z,39.92
2018-08-23T16:07:12.963Z,39.36
2018-08-23T16:15:33.987Z,37.85
2018-08-23T16:23:55.000Z,35.53
2018-08-23T16:32:16.009Z,33.68
2018-08-23T16:40:38.110Z,32.38
2018-08-23T16:48:59.225Z,30.91
2018-08-23T16:57:20.251Z,29.74
2018-08-23T17:05:41.286Z,29.75
2018-08-23T17:14:02.307Z,29.55
2018-08-23T17:22:24.322Z,29.27
2018-08-23T17:30:45.410Z,28.70
2018-08-23T17:39:06.451Z,28.21
2018-08-23T17:47:27.830Z,27.66
2018-08-23T17:55:49.008Z,27.13
2018-08-23T18:04:09.979Z,26.58
2018-08-23T18:12:31.022Z,26.18
2018-08-23T18:20:52.069Z,25.85
2018-08-23T18:29:13.357Z,25.58
2018-08-23T18:37:35.604Z,25.35
2018-08-23T18:45:56.578Z,25.02
2018-08-23T18:54:17.685Z,24.84
2018-08-23T19:02:39.105Z,24.66
2018-08-23T19:11:00.160Z,24.55
2018-08-23T19:19:21.223Z,24.32
2018-08-23T19:27:42.252Z,24.03
2018-08-23T19:36:03.282Z,23.87
2018-08-23T19:44:24.305Z,23.70
2018-08-23T19:52:45.405Z,23.46
2018-08-23T20:01:07.473Z,23.34
2018-08-23T20:09:30.567Z,23.28
2018-08-23T20:17:51.910Z,23.22
2018-08-23T20:26:12.936Z,23.13
2018-08-23T20:34:33.984Z,23.01
2018-08-23T20:42:55.008Z,22.90
2018-08-23T20:51:16.035Z,22.91
2018-08-23T20:59:37.146Z,22.92
2018-08-23T21:07:58.186Z,22.83
2018-08-23T21:16:19.512Z,22.78
2018-08-23T21:24:40.504Z,22.74
2018-08-23T21:33:01.528Z,22.72
2018-08-23T21:41:22.541Z,22.67
2018-08-23T21:49:44.639Z,22.68
2018-08-23T21:58:05.686Z,22.65
2018-08-23T22:06:26.711Z,22.59
2018-08-23T22:14:47.755Z,22.56
2018-08-23T22:23:08.752Z,22.60
2018-08-23T22:31:29.863Z,22.57
2018-08-23T22:39:51.908Z,22.66
2018-08-23T22:48:12.931Z,22.64
2018-08-23T22:56:34.304Z,22.69
2018-08-23T23:04:55.398Z,22.73
2018-08-23T23:13:16.438Z,22.78
2018-08-23T23:21:37.582Z,22.90
2018-08-23T23:29:58.716Z,22.99
2018-08-23T23:38:19.753Z,23.01
2018-08-23T23:46:41.084Z,23.10
2018-08-23T23:55:03.179Z,23.02
